Rauville, South Dakota
Current Conditions -  °F | °C
As of 11:53 AM on Tuesday 21 Oct 2014 (Local Time) from KATY Reporting Station
Clear Clear  
Wind Chill: 66°   Ceiling: Unl
Heat Index: 66°   Visibility: 10mi
Dew Point: 39°   Wind: 20mph
Humidity: 37%   Direction: 160°SSE
Pressure: 29.98"   Gusts: NA
Location:  44.9156°N, 97.1699°W
Report Text: KATY 211653Z AUTO 16017KT 10SM CLR 19/04 A2998 RMK AO2 SLP156 T01890039
Loading
Personal Weather Stations






























Interactive Weather Map
Tropical Storm Tracking
New forecast layout! Learn more

10-Day Weather Forecast

Advertisements
Track Severe Weather on mobile